Terminal Aerodrome Forecast
Issued by NWS Duluth, MN

Home | Current Version | Previous Version | Text Only | Print | Product List | Glossary On
Versions: 1 2 3 4 5 6 7 8 9 10 11 12 13
017
FTUS43 KDLH 241138
TAFINL
TAF
KINL 241138Z 2412/2512 26007KT P6SM SCT013
     FM241300 26008KT P6SM BKN013
     FM241600 28013G21KT P6SM BKN050
     FM250000 28007KT P6SM SCT050=

USA.gov is the U.S. government's official web portal to all federal, state and local government web resources and services.